Time;durP1;ratioP1;P1;durP2;ratioP2;P2;SDS_P1;SDS_P2;PMS_P1;PMS_P2;Temp;Humidity;BMP_temperature;BMP_pressure;BME280_temperature;BME280_humidity;BME280_pressure;Samples;Min_cycle;Max_cycle;Signal;HPM_P1;HPM_P2
2022/04/25 00:00:54;;;;;;;8.40;4.97;;;10.50;99.90;;;;;;5058780;28;20460;-85
2022/04/25 00:03:21;;;;;;;5.70;4.10;;;10.20;99.90;;;;;;5058339;28;20451;-86
2022/04/25 00:05:47;;;;;;;6.13;4.03;;;10.10;99.90;;;;;;5056811;28;20452;-85
2022/04/25 00:08:14;;;;;;;7.17;5.60;;;10.00;99.90;;;;;;5057596;28;20490;-86
2022/04/25 00:10:41;;;;;;;9.33;5.17;;;9.80;99.90;;;;;;5057211;28;20517;-86
2022/04/25 00:13:08;;;;;;;6.77;4.87;;;9.80;99.90;;;;;;5056831;28;20458;-86
2022/04/25 00:15:35;;;;;;;8.50;5.40;;;9.70;99.90;;;;;;5056429;28;20451;-86
2022/04/25 00:18:03;;;;;;;7.10;4.87;;;9.50;99.90;;;;;;5056331;28;20524;-87
2022/04/25 00:20:30;;;;;;;8.57;4.90;;;9.50;99.90;;;;;;5055764;28;20657;-86
2022/04/25 00:23:00;;;;;;;11.10;6.50;;;9.50;99.90;;;;;;5055425;28;20457;-86
2022/04/25 00:25:28;;;;;;;8.93;5.17;;;9.40;99.90;;;;;;5056378;28;20449;-85
2022/04/25 00:27:55;;;;;;;9.00;5.60;;;9.40;99.90;;;;;;5056053;28;21055;-85
2022/04/25 00:30:21;;;;;;;7.10;4.63;;;9.30;99.90;;;;;;5056187;28;20471;-85
2022/04/25 00:32:48;;;;;;;6.40;5.17;;;9.30;99.90;;;;;;5061256;28;20434;-86
2022/04/25 00:35:16;;;;;;;7.50;5.13;;;9.20;99.90;;;;;;5074083;28;20435;-86
2022/04/25 00:37:43;;;;;;;4.87;4.37;;;9.30;99.90;;;;;;5057519;28;20511;-85
2022/04/25 00:40:11;;;;;;;6.20;5.00;;;9.40;99.90;;;;;;5057032;28;20561;-86
2022/04/25 00:42:38;;;;;;;6.27;4.27;;;9.30;99.90;;;;;;5055703;28;20460;-86
2022/04/25 00:45:06;;;;;;;6.13;4.73;;;9.20;99.90;;;;;;5055863;28;21006;-86
2022/04/25 00:47:33;;;;;;;8.13;4.70;;;9.20;99.90;;;;;;5055642;28;21182;-87
2022/04/25 00:50:00;;;;;;;4.90;4.40;;;9.20;99.90;;;;;;5055931;28;20492;-86
2022/04/25 00:52:28;;;;;;;6.80;4.67;;;9.30;99.90;;;;;;5056067;28;20451;-86
2022/04/25 00:54:55;;;;;;;8.13;4.10;;;9.30;99.90;;;;;;5055292;28;20542;-86
2022/04/25 00:57:22;;;;;;;4.87;3.80;;;9.30;99.90;;;;;;5055468;28;20446;-86
2022/04/25 00:59:49;;;;;;;4.70;3.73;;;9.30;99.90;;;;;;5056432;28;20447;-85
2022/04/25 01:02:16;;;;;;;4.53;3.90;;;9.40;99.90;;;;;;5056856;28;20488;-85
2022/04/25 01:04:43;;;;;;;8.80;4.47;;;9.40;99.90;;;;;;5056502;28;20947;-85
2022/04/25 01:07:10;;;;;;;4.63;4.10;;;9.30;99.90;;;;;;5056065;28;20487;-87
2022/04/25 01:09:39;;;;;;;6.43;4.33;;;9.40;99.90;;;;;;5055541;28;20532;-85
2022/04/25 01:12:06;;;;;;;5.93;4.37;;;9.30;99.90;;;;;;5055819;28;20566;-85
2022/04/25 01:14:34;;;;;;;6.90;4.23;;;9.20;99.90;;;;;;5055576;28;20453;-85
2022/04/25 01:17:00;;;;;;;6.07;4.87;;;9.20;99.90;;;;;;5055868;28;20474;-86
2022/04/25 01:19:27;;;;;;;5.37;4.70;;;9.10;99.90;;;;;;5058846;28;20456;-85
2022/04/25 01:21:58;;;;;;;5.40;4.90;;;9.10;99.90;;;;;;5063856;28;20485;-86
2022/04/25 01:27:17;;;;;;;5.67;4.60;;;8.90;99.90;;;;;;5036437;28;20462;-86
2022/04/25 01:29:45;;;;;;;5.10;4.47;;;8.90;99.90;;;;;;5038021;28;20504;-86
2022/04/25 01:32:12;;;;;;;6.80;5.17;;;8.90;99.90;;;;;;5056729;28;20471;-87
2022/04/25 01:34:39;;;;;;;5.40;4.80;;;8.90;99.90;;;;;;5057454;28;20474;-86
2022/04/25 01:37:07;;;;;;;9.23;4.93;;;8.90;99.90;;;;;;5056940;28;20504;-86
2022/04/25 01:39:40;;;;;;;6.20;4.53;;;8.90;99.90;;;;;;5057268;28;20459;-85
2022/04/25 01:42:08;;;;;;;6.70;4.87;;;9.00;99.90;;;;;;5056417;28;20981;-86
2022/04/25 01:44:35;;;;;;;5.50;4.60;;;9.00;99.90;;;;;;5057414;28;20455;-86
2022/04/25 01:47:03;;;;;;;5.47;4.50;;;9.00;99.90;;;;;;5056982;28;20466;-85
2022/04/25 01:49:30;;;;;;;5.70;5.10;;;9.00;99.90;;;;;;5058228;28;20456;-85
2022/04/25 01:51:57;;;;;;;8.30;5.90;;;8.90;99.90;;;;;;5055156;28;20474;-85
2022/04/25 01:54:26;;;;;;;5.53;4.40;;;8.90;99.90;;;;;;5055943;28;20836;-86
2022/04/25 01:56:55;;;;;;;5.80;5.20;;;8.90;99.90;;;;;;5055944;28;20447;-87
2022/04/25 01:59:22;;;;;;;9.50;5.07;;;8.90;99.90;;;;;;5054267;28;20448;-86
2022/04/25 02:01:49;;;;;;;6.30;5.17;;;8.90;99.90;;;;;;5053988;28;20463;-86
2022/04/25 02:04:16;;;;;;;5.93;4.90;;;8.90;99.90;;;;;;5053389;28;20457;-85
2022/04/25 02:06:43;;;;;;;7.70;6.60;;;8.90;99.90;;;;;;5053535;28;20452;-86
2022/04/25 02:09:10;;;;;;;7.10;5.53;;;9.00;99.90;;;;;;5053053;28;20477;-86
2022/04/25 02:11:37;;;;;;;9.10;7.30;;;9.00;99.90;;;;;;5053134;28;20478;-86
2022/04/25 02:14:05;;;;;;;6.97;5.77;;;8.90;99.90;;;;;;5053712;28;20451;-86
2022/04/25 02:16:32;;;;;;;11.87;7.17;;;9.00;99.90;;;;;;5053963;28;20812;-88
2022/04/25 02:19:00;;;;;;;7.67;6.83;;;8.90;99.90;;;;;;5053822;28;20551;-87
2022/04/25 02:21:28;;;;;;;8.60;5.27;;;9.00;99.90;;;;;;5053202;28;20475;-88
2022/04/25 02:23:56;;;;;;;5.53;4.20;;;9.00;99.90;;;;;;5036085;28;20460;-87
2022/04/25 02:26:23;;;;;;;6.77;6.10;;;9.00;99.90;;;;;;5053848;28;20457;-88
2022/04/25 02:28:50;;;;;;;7.20;5.53;;;9.10;99.90;;;;;;5052990;28;20493;-86
2022/04/25 02:31:18;;;;;;;7.60;4.77;;;9.10;99.90;;;;;;5053368;28;20815;-87
2022/04/25 02:33:45;;;;;;;8.47;6.30;;;9.20;99.90;;;;;;5054236;28;20537;-87
2022/04/25 02:36:12;;;;;;;9.70;5.10;;;9.10;99.90;;;;;;5054069;28;20826;-89
2022/04/25 02:38:40;;;;;;;5.47;4.90;;;9.20;99.90;;;;;;5053971;28;20450;-89
2022/04/25 02:41:08;;;;;;;5.90;4.83;;;9.30;99.90;;;;;;5054024;28;20466;-87
2022/04/25 02:43:37;;;;;;;7.53;4.70;;;9.30;99.90;;;;;;5054181;28;20465;-87
2022/04/25 02:46:05;;;;;;;7.70;4.63;;;9.40;99.90;;;;;;5055337;28;20493;-87
2022/04/25 02:48:34;;;;;;;5.50;4.63;;;9.40;99.90;;;;;;5055072;28;20490;-87
2022/04/25 02:51:01;;;;;;;7.17;4.80;;;9.50;99.90;;;;;;5061215;28;20484;-86
2022/04/25 02:53:28;;;;;;;5.17;4.37;;;9.50;99.90;;;;;;5067924;28;20489;-86
2022/04/25 02:55:55;;;;;;;7.43;4.80;;;9.50;99.90;;;;;;5054455;28;20538;-88
2022/04/25 02:58:23;;;;;;;5.03;3.87;;;9.60;99.90;;;;;;5054223;28;20824;-87
2022/04/25 03:00:50;;;;;;;4.73;4.10;;;9.50;99.90;;;;;;5053904;28;20463;-87
2022/04/25 03:03:19;;;;;;;7.80;5.37;;;9.60;99.90;;;;;;5054209;28;20538;-88
2022/04/25 03:05:48;;;;;;;6.70;5.57;;;9.50;99.90;;;;;;5054550;28;20449;-88
2022/04/25 03:08:17;;;;;;;10.07;8.10;;;9.50;99.90;;;;;;5068836;28;20489;-87
2022/04/25 03:10:46;;;;;;;7.07;5.90;;;9.50;99.90;;;;;;5054391;28;20477;-87
2022/04/25 03:13:14;;;;;;;9.20;7.43;;;9.40;99.90;;;;;;5053437;28;20446;-88
2022/04/25 03:15:41;;;;;;;9.90;7.73;;;9.10;99.90;;;;;;5109270;22;20497;-81
2022/04/25 03:18:10;;;;;;;10.33;7.17;;;9.30;99.90;;;;;;5055108;28;20533;-80
2022/04/25 03:20:37;;;;;;;8.10;6.93;;;9.20;99.90;;;;;;5055953;28;20473;-78
2022/04/25 03:23:06;;;;;;;8.50;6.60;;;9.30;99.90;;;;;;5057761;28;20931;-80
2022/04/25 03:25:33;;;;;;;8.20;7.30;;;9.30;99.90;;;;;;5056549;28;20473;-79
2022/04/25 03:28:01;;;;;;;9.83;7.00;;;9.40;99.90;;;;;;5057025;28;20497;-79
2022/04/25 03:30:28;;;;;;;9.33;7.00;;;9.40;99.90;;;;;;5058246;28;20445;-79
2022/04/25 03:32:56;;;;;;;7.30;6.60;;;9.50;99.90;;;;;;5057449;28;20470;-80
2022/04/25 03:35:24;;;;;;;10.47;8.17;;;9.50;99.90;;;;;;5056339;28;20565;-79
2022/04/25 03:37:52;;;;;;;7.97;6.40;;;9.50;99.90;;;;;;5056752;28;20463;-79
2022/04/25 03:40:20;;;;;;;9.17;8.13;;;9.60;99.90;;;;;;5056481;28;20455;-80
2022/04/25 03:42:47;;;;;;;9.77;8.23;;;9.60;99.90;;;;;;5056822;28;20809;-80
2022/04/25 03:45:16;;;;;;;11.07;9.47;;;9.60;99.90;;;;;;5056187;28;20854;-79
2022/04/25 03:47:44;;;;;;;11.03;8.83;;;9.60;99.90;;;;;;5056409;28;20459;-80
2022/04/25 03:50:12;;;;;;;11.60;9.50;;;9.70;99.90;;;;;;5056003;28;20447;-79
2022/04/25 03:52:40;;;;;;;14.50;9.60;;;9.70;99.90;;;;;;5056889;28;20455;-80
2022/04/25 03:57:54;;;;;;;12.30;10.30;;;9.70;99.90;;;;;;5056930;28;20488;-80
2022/04/25 04:00:22;;;;;;;14.73;11.33;;;9.70;99.90;;;;;;5056673;28;20529;-80
2022/04/25 04:02:49;;;;;;;14.73;11.50;;;9.80;99.90;;;;;;5056311;28;20451;-79
2022/04/25 04:05:16;;;;;;;13.40;9.50;;;9.80;99.90;;;;;;5056884;28;20998;-81
2022/04/25 04:07:43;;;;;;;10.67;9.57;;;9.90;99.90;;;;;;5056645;28;20458;-80
2022/04/25 04:10:10;;;;;;;9.83;8.33;;;9.80;99.90;;;;;;5056013;28;20830;-80
2022/04/25 04:12:38;;;;;;;10.30;9.20;;;9.80;99.90;;;;;;5056178;28;20469;-80
2022/04/25 04:15:07;;;;;;;14.60;8.93;;;9.80;99.90;;;;;;5055947;28;20483;-80
2022/04/25 04:17:35;;;;;;;9.93;8.40;;;9.70;99.90;;;;;;5056264;28;20457;-81
2022/04/25 04:20:03;;;;;;;12.03;9.50;;;9.80;99.90;;;;;;5049929;28;20455;-80
2022/04/25 04:22:31;;;;;;;10.60;8.60;;;9.90;99.90;;;;;;5056224;28;20821;-79
2022/04/25 04:24:59;;;;;;;13.43;9.80;;;10.00;99.90;;;;;;5056126;28;20469;-82
2022/04/25 04:27:26;;;;;;;12.77;10.13;;;9.80;99.90;;;;;;5055823;28;20447;-81
2022/04/25 04:29:53;;;;;;;10.90;9.77;;;9.90;99.90;;;;;;5055156;28;20613;-82
2022/04/25 04:32:21;;;;;;;12.83;10.10;;;9.90;99.90;;;;;;5055888;28;20818;-81
2022/04/25 04:34:48;;;;;;;15.43;10.77;;;10.00;99.90;;;;;;5054845;28;20476;-81
2022/04/25 04:37:15;;;;;;;12.50;10.37;;;10.00;99.90;;;;;;5056008;28;20446;-80
2022/04/25 04:39:41;;;;;;;13.17;10.63;;;10.00;99.90;;;;;;5055033;28;20470;-79
2022/04/25 04:42:08;;;;;;;12.07;10.70;;;10.10;99.90;;;;;;5056439;28;20447;-81
2022/04/25 04:44:36;;;;;;;11.70;9.93;;;10.10;99.90;;;;;;5057329;28;20552;-78
2022/04/25 04:47:03;;;;;;;13.43;11.30;;;10.10;99.90;;;;;;5056148;28;20477;-78
2022/04/25 04:49:31;;;;;;;10.77;9.43;;;10.10;99.90;;;;;;5057802;28;20533;-80
2022/04/25 04:51:58;;;;;;;10.80;9.47;;;10.10;99.90;;;;;;5076751;28;20874;-81
2022/04/25 04:54:25;;;;;;;11.03;9.80;;;10.10;99.90;;;;;;5077746;28;20466;-80
2022/04/25 04:56:51;;;;;;;12.10;9.97;;;10.20;99.90;;;;;;5077276;28;20443;-79
2022/04/25 04:59:18;;;;;;;12.43;10.90;;;10.20;99.90;;;;;;5076509;28;20454;-80
2022/04/25 05:01:45;;;;;;;14.93;13.30;;;10.20;99.90;;;;;;5067010;28;20458;-82
2022/04/25 05:04:12;;;;;;;14.70;13.20;;;10.10;99.90;;;;;;5064042;28;20461;-82
2022/04/25 05:06:40;;;;;;;15.80;12.33;;;10.20;99.90;;;;;;5062226;28;20486;-84
2022/04/25 05:09:07;;;;;;;14.67;11.87;;;10.20;99.90;;;;;;5062042;28;20478;-83
2022/04/25 05:11:34;;;;;;;14.03;12.37;;;10.20;99.90;;;;;;5061694;28;20512;-83
2022/04/25 05:14:07;;;;;;;18.30;14.30;;;10.20;99.90;;;;;;5061202;28;20486;-82
2022/04/25 05:16:34;;;;;;;13.67;11.97;;;10.20;99.90;;;;;;5060356;28;20494;-83
2022/04/25 05:19:02;;;;;;;16.50;14.53;;;10.20;99.90;;;;;;5058093;28;20510;-81
2022/04/25 05:21:29;;;;;;;13.90;12.10;;;10.20;99.90;;;;;;5057910;28;20451;-81
2022/04/25 05:23:57;;;;;;;15.53;13.17;;;10.10;99.90;;;;;;5056307;28;20980;-81
2022/04/25 05:26:24;;;;;;;14.70;12.67;;;10.20;99.90;;;;;;5055466;28;20553;-81
2022/04/25 05:28:51;;;;;;;15.10;11.90;;;10.10;99.90;;;;;;5051346;28;20480;-81
2022/04/25 05:31:18;;;;;;;13.70;12.20;;;10.10;99.90;;;;;;5055746;28;20455;-81
2022/04/25 05:33:45;;;;;;;13.87;10.47;;;10.20;99.90;;;;;;5051444;28;20916;-81
2022/04/25 05:36:12;;;;;;;15.00;12.97;;;10.20;99.90;;;;;;5053839;28;20494;-81
2022/04/25 05:38:38;;;;;;;14.07;12.10;;;10.20;99.90;;;;;;5055440;28;20455;-81
2022/04/25 05:41:09;;;;;;;12.30;11.00;;;10.20;99.90;;;;;;5055223;28;20452;-81
2022/04/25 05:43:36;;;;;;;17.20;12.53;;;10.20;99.90;;;;;;5055927;28;20463;-81
2022/04/25 05:46:04;;;;;;;12.97;11.10;;;10.10;99.90;;;;;;5056132;28;20816;-80
2022/04/25 05:54:00;;;;;;;12.53;11.23;;;10.10;99.90;;;;;;5062729;28;20929;-81
2022/04/25 05:56:28;;;;;;;19.67;12.40;;;9.90;99.90;;;;;;5068421;28;20519;-82
2022/04/25 05:58:55;;;;;;;14.80;13.10;;;9.90;99.90;;;;;;5069405;28;20534;-81
2022/04/25 06:01:22;;;;;;;12.80;11.07;;;10.00;99.90;;;;;;5070328;28;20450;-81
2022/04/25 06:03:49;;;;;;;12.47;11.17;;;10.00;99.90;;;;;;5069937;28;20462;-80
2022/04/25 06:06:18;;;;;;;15.70;12.30;;;10.00;99.90;;;;;;5073814;28;20463;-81
2022/04/25 06:08:48;;;;;;;12.73;11.33;;;9.90;99.90;;;;;;5074435;28;21212;-82
2022/04/25 06:11:17;;;;;;;14.70;10.70;;;10.00;99.90;;;;;;5070902;28;20485;-80
2022/04/25 06:13:46;;;;;;;12.97;11.53;;;10.00;99.90;;;;;;5064418;28;20965;-80
2022/04/25 06:16:13;;;;;;;11.93;10.57;;;10.10;99.90;;;;;;5063064;28;20516;-79
2022/04/25 06:18:40;;;;;;;13.80;10.43;;;10.20;99.90;;;;;;5057738;28;21158;-80
2022/04/25 06:21:07;;;;;;;13.37;11.93;;;10.20;99.90;;;;;;5056896;28;20459;-80
2022/04/25 06:23:34;;;;;;;13.60;11.50;;;10.30;99.90;;;;;;5060732;28;20504;-80
2022/04/25 06:26:01;;;;;;;14.03;12.53;;;10.20;99.90;;;;;;5060585;28;20474;-79
2022/04/25 06:28:29;;;;;;;16.23;12.13;;;10.20;99.90;;;;;;5061583;28;20527;-81
2022/04/25 06:30:58;;;;;;;13.37;11.97;;;10.30;99.90;;;;;;5061892;28;20461;-80
2022/04/25 06:33:25;;;;;;;15.20;10.53;;;10.60;99.90;;;;;;5063252;28;20460;-78
2022/04/25 06:35:52;;;;;;;13.23;11.83;;;10.80;99.90;;;;;;5061842;28;20471;-79
2022/04/25 06:38:19;;;;;;;12.00;10.77;;;11.10;99.90;;;;;;5055014;28;20458;-79
2022/04/25 06:40:46;;;;;;;13.90;10.63;;;11.40;99.90;;;;;;5060477;28;20431;-79
2022/04/25 06:43:14;;;;;;;10.63;9.57;;;11.50;99.90;;;;;;5058350;28;20913;-78
2022/04/25 06:45:41;;;;;;;9.47;8.50;;;11.80;99.90;;;;;;5061062;28;20488;-78
2022/04/25 06:48:09;;;;;;;10.20;8.53;;;12.00;99.90;;;;;;5059076;28;20457;-78
2022/04/25 06:50:39;;;;;;;8.57;7.67;;;12.20;99.90;;;;;;5041266;28;21008;-79
2022/04/25 06:53:06;;;;;;;11.90;7.63;;;12.30;99.90;;;;;;5061588;28;20478;-80
2022/04/25 06:55:34;;;;;;;10.73;7.50;;;12.20;99.90;;;;;;5055681;28;20472;-79
2022/04/25 06:58:00;;;;;;;8.70;7.33;;;12.30;99.90;;;;;;5057606;28;20484;-80
2022/04/25 07:00:27;;;;;;;9.37;7.70;;;11.80;99.90;;;;;;5059021;28;20510;-78
2022/04/25 07:02:55;;;;;;;8.07;6.93;;;11.80;99.90;;;;;;5063157;28;20771;-80
2022/04/25 07:05:24;;;;;;;8.10;7.00;;;11.80;99.90;;;;;;5063964;28;20476;-80
2022/04/25 07:07:51;;;;;;;8.33;6.47;;;11.80;99.90;;;;;;5063073;28;20459;-79
2022/04/25 07:10:18;;;;;;;8.67;6.80;;;11.90;99.90;;;;;;5059861;28;20570;-81
2022/04/25 07:12:45;;;;;;;8.70;6.20;;;12.00;99.90;;;;;;5060551;28;20882;-79
2022/04/25 07:15:12;;;;;;;8.20;7.40;;;11.70;99.90;;;;;;5061115;28;20483;-79
2022/04/25 07:17:39;;;;;;;11.70;8.47;;;11.60;99.90;;;;;;5062865;28;20451;-80
2022/04/25 07:20:08;;;;;;;10.70;9.60;;;11.40;99.90;;;;;;5058202;28;20474;-82
2022/04/25 07:30:49;;;;;;;10.87;9.53;;;11.90;99.90;;;;;;5057406;28;20485;-80
2022/04/25 07:33:16;;;;;;;11.97;9.20;;;11.90;99.90;;;;;;5059654;28;20506;-79
2022/04/25 07:35:43;;;;;;;10.43;9.43;;;12.00;99.90;;;;;;5056735;28;20479;-77
2022/04/25 07:38:12;;;;;;;12.77;11.20;;;12.10;99.90;;;;;;5056492;28;20480;-78
2022/04/25 07:40:41;;;;;;;13.40;11.20;;;11.90;99.90;;;;;;5054968;28;20546;-78
2022/04/25 07:43:08;;;;;;;13.77;10.90;;;11.60;99.90;;;;;;5056751;28;20466;-80
2022/04/25 07:45:34;;;;;;;13.50;11.50;;;11.80;99.90;;;;;;5057382;28;20540;-79
2022/04/25 07:48:01;;;;;;;15.90;11.47;;;11.80;99.90;;;;;;5059847;28;20454;-79
2022/04/25 07:50:29;;;;;;;14.27;11.30;;;11.30;99.90;;;;;;5059231;28;20475;-81
2022/04/25 07:52:56;;;;;;;13.93;12.03;;;11.10;99.90;;;;;;5059737;28;20439;-82
2022/04/25 07:55:24;;;;;;;12.53;11.20;;;10.90;99.90;;;;;;5060508;28;20468;-79
2022/04/25 07:57:51;;;;;;;13.23;11.73;;;10.80;99.90;;;;;;5060678;28;20439;-79
2022/04/25 08:00:18;;;;;;;13.07;11.77;;;10.80;99.90;;;;;;5042329;28;20439;-79
2022/04/25 08:02:45;;;;;;;12.70;11.13;;;10.90;99.90;;;;;;5059686;28;20450;-79
2022/04/25 08:05:12;;;;;;;13.70;10.60;;;11.00;99.90;;;;;;5059315;28;20931;-79
2022/04/25 08:07:39;;;;;;;17.67;12.73;;;10.90;99.90;;;;;;5059619;28;20540;-79
2022/04/25 08:10:06;;;;;;;14.03;11.20;;;11.00;99.90;;;;;;5060727;28;20467;-79
2022/04/25 08:18:06;;;;;;;21.00;14.03;;;11.50;99.90;;;;;;5059890;28;20439;-79
2022/04/25 08:20:35;;;;;;;15.00;12.87;;;11.60;99.90;;;;;;5061318;28;20444;-81
2022/04/25 08:23:03;;;;;;;13.00;11.60;;;11.60;99.90;;;;;;5060434;28;20453;-79
2022/04/25 08:25:31;;;;;;;14.77;12.90;;;11.70;99.90;;;;;;5062201;28;20500;-81
2022/04/25 08:27:59;;;;;;;14.37;11.90;;;11.70;99.90;;;;;;5061423;28;20436;-82
2022/04/25 08:30:26;;;;;;;13.37;11.10;;;11.50;99.90;;;;;;5059485;28;20479;-81
2022/04/25 08:32:55;;;;;;;12.13;10.80;;;11.50;99.90;;;;;;5059721;28;20458;-81
2022/04/25 08:35:22;;;;;;;12.13;10.23;;;11.50;99.90;;;;;;5058442;28;20473;-81
2022/04/25 08:37:49;;;;;;;11.70;10.50;;;11.40;99.90;;;;;;5058277;28;21026;-80
2022/04/25 08:40:17;;;;;;;11.80;10.63;;;11.30;99.90;;;;;;5061368;28;20483;-81
2022/04/25 08:42:44;;;;;;;13.37;11.97;;;11.30;99.90;;;;;;5059638;28;20448;-80
2022/04/25 08:45:13;;;;;;;12.03;10.50;;;11.40;99.90;;;;;;5059917;28;20881;-79
2022/04/25 08:47:47;;;;;;;12.07;10.07;;;11.20;99.90;;;;;;5060711;28;20451;-79
2022/04/25 08:50:15;;;;;;;9.60;8.50;;;11.30;99.90;;;;;;5059755;28;20490;-79
2022/04/25 08:52:42;;;;;;;13.33;10.20;;;11.30;99.90;;;;;;5060953;28;20451;-82
2022/04/25 08:55:10;;;;;;;12.00;10.70;;;11.30;99.90;;;;;;5061714;28;20539;-79
2022/04/25 08:57:37;;;;;;;12.50;9.87;;;11.40;99.90;;;;;;5061542;28;20447;-80
2022/04/25 09:00:06;;;;;;;11.40;10.20;;;11.70;99.90;;;;;;5059872;28;20958;-80
2022/04/25 09:02:36;;;;;;;12.60;11.40;;;11.90;99.90;;;;;;5058978;28;20494;-80
2022/04/25 09:05:04;;;;;;;12.20;10.80;;;12.10;99.90;;;;;;5061136;28;20478;-80
2022/04/25 09:07:31;;;;;;;14.73;10.80;;;11.90;99.90;;;;;;5057399;28;20477;-79
2022/04/25 09:09:57;;;;;;;13.90;11.50;;;11.90;99.90;;;;;;5057597;28;20995;-79
2022/04/25 09:12:24;;;;;;;13.30;11.37;;;11.80;99.90;;;;;;5060713;28;20822;-80
2022/04/25 09:14:52;;;;;;;14.47;11.47;;;11.70;99.90;;;;;;5057530;28;20952;-80
2022/04/25 09:17:19;;;;;;;12.10;10.80;;;11.80;99.90;;;;;;5058120;28;20460;-79
2022/04/25 09:22:29;;;;;;;14.23;10.87;;;11.90;99.90;;;;;;5106482;22;20497;-83
2022/04/25 09:25:03;;;;;;;14.67;11.80;;;12.10;99.90;;;;;;5087145;28;20474;-85
2022/04/25 09:27:30;;;;;;;12.40;11.20;;;12.00;99.90;;;;;;5070937;28;21001;-81
2022/04/25 09:29:56;;;;;;;13.67;11.47;;;12.20;99.90;;;;;;5068095;28;20507;-83
2022/04/25 09:32:33;;;;;;;16.73;12.10;;;12.10;99.90;;;;;;5070234;28;20465;-84
2022/04/25 09:35:20;;;;;;;13.33;11.33;;;12.30;99.90;;;;;;5069211;28;20439;-82
2022/04/25 09:37:49;;;;;;;15.57;12.07;;;12.40;99.90;;;;;;5069081;28;20957;-83
2022/04/25 09:40:20;;;;;;;12.77;11.37;;;12.50;99.90;;;;;;5067246;28;20485;-83
2022/04/25 09:42:48;;;;;;;15.57;12.30;;;12.60;99.90;;;;;;5070799;28;20454;-83
2022/04/25 09:45:15;;;;;;;14.90;12.97;;;12.90;99.90;;;;;;5076119;28;20444;-82
2022/04/25 09:47:43;;;;;;;13.43;11.97;;;13.20;99.90;;;;;;5066656;28;20478;-83
2022/04/25 09:50:11;;;;;;;14.97;12.93;;;13.50;99.90;;;;;;5068902;28;20498;-83
2022/04/25 09:52:55;;;;;;;15.00;11.87;;;14.00;99.90;;;;;;5068929;28;20501;-83
2022/04/25 09:55:23;;;;;;;17.20;15.37;;;14.20;99.90;;;;;;5083336;28;20449;-84
2022/04/25 09:57:50;;;;;;;16.90;14.40;;;14.30;99.90;;;;;;5081543;28;20465;-84
2022/04/25 10:00:30;;;;;;;16.57;14.70;;;14.50;99.90;;;;;;5087175;28;20455;-82
2022/04/25 10:02:58;;;;;;;16.33;14.17;;;14.60;99.90;;;;;;5088324;28;20447;-83
2022/04/25 10:05:37;;;;;;;17.47;15.70;;;15.30;99.90;;;;;;5085390;28;20447;-84
2022/04/25 10:08:07;;;;;;;13.90;12.40;;;15.30;99.90;;;;;;5088346;28;20450;-83
2022/04/25 10:10:34;;;;;;;15.70;14.10;;;16.00;99.90;;;;;;5073675;28;20529;-84
2022/04/25 10:13:02;;;;;;;15.37;13.77;;;16.50;99.90;;;;;;5069632;28;20466;-84
2022/04/25 10:15:29;;;;;;;15.30;13.80;;;16.70;99.90;;;;;;5086635;28;20462;-83
2022/04/25 10:17:57;;;;;;;14.17;12.67;;;16.60;99.90;;;;;;5087348;28;20447;-85
2022/04/25 10:20:24;;;;;;;14.53;13.00;;;17.60;99.90;;;;;;5081768;28;20467;-85
2022/04/25 10:22:51;;;;;;;13.07;11.60;;;17.90;99.90;;;;;;5084323;28;20474;-82
2022/04/25 10:25:20;;;;;;;12.27;10.07;;;18.80;99.90;;;;;;5079883;28;20480;-84
2022/04/25 10:27:47;;;;;;;15.50;10.83;;;19.00;99.90;;;;;;5066709;28;20452;-83
2022/04/25 10:30:17;;;;;;;12.00;10.73;;;19.10;99.90;;;;;;5080934;28;20485;-82
2022/04/25 10:32:44;;;;;;;15.13;13.47;;;19.50;99.90;;;;;;5080403;28;20454;-84
2022/04/25 10:35:15;;;;;;;11.00;9.90;;;19.30;99.90;;;;;;5081281;28;20459;-84
2022/04/25 10:37:44;;;;;;;11.70;10.60;;;20.50;99.90;;;;;;5080969;28;20458;-83
2022/04/25 10:40:12;;;;;;;13.70;11.70;;;21.40;99.90;;;;;;5083604;28;20473;-84
2022/04/25 10:45:55;;;;;;;12.23;10.90;;;20.80;99.90;;;;;;5063236;28;20501;-82
2022/04/25 10:48:22;;;;;;;12.47;11.20;;;19.20;99.90;;;;;;5075816;28;20440;-82
2022/04/25 10:51:08;;;;;;;11.53;10.33;;;18.00;99.90;;;;;;5090777;28;20469;-84
2022/04/25 10:53:56;;;;;;;12.60;11.40;;;17.60;99.90;;;;;;5088859;28;20977;-84
2022/04/25 10:56:26;;;;;;;14.43;12.40;;;17.40;99.90;;;;;;5078562;28;20466;-83
2022/04/25 10:59:25;;;;;;;13.30;11.47;;;17.10;99.90;;;;;;5083090;28;20441;-83
2022/04/25 11:01:53;;;;;;;12.80;11.60;;;17.40;99.90;;;;;;5082706;28;20471;-83
2022/04/25 11:04:21;;;;;;;11.80;10.60;;;17.20;99.90;;;;;;5081977;28;20467;-83
2022/04/25 11:06:48;;;;;;;15.33;12.80;;;17.20;99.90;;;;;;5068403;28;20455;-84
2022/04/25 11:09:37;;;;;;;13.03;10.47;;;16.70;99.90;;;;;;5065225;28;20448;-83
2022/04/25 11:12:04;;;;;;;16.40;11.00;;;16.50;99.90;;;;;;5076923;28;20492;-82
2022/04/25 11:14:33;;;;;;;13.13;11.90;;;16.40;99.90;;;;;;5082636;28;20433;-83
2022/04/25 11:17:08;;;;;;;11.40;9.40;;;16.40;99.90;;;;;;5084243;28;20458;-82
2022/04/25 11:19:46;;;;;;;10.43;9.03;;;16.70;99.90;;;;;;5085519;28;20506;-80
2022/04/25 11:22:31;;;;;;;14.17;12.20;;;16.70;99.90;;;;;;5084388;28;20492;-85
2022/04/25 11:24:58;;;;;;;13.03;11.73;;;16.30;99.90;;;;;;5070169;28;20453;-83
2022/04/25 11:27:24;;;;;;;12.10;10.07;;;15.80;99.90;;;;;;5067039;28;20454;-82
2022/04/25 11:30:17;;;;;;;11.80;10.43;;;15.60;99.90;;;;;;5066437;28;20475;-83
2022/04/25 11:32:43;;;;;;;13.60;12.20;;;15.50;99.90;;;;;;5065082;28;20443;-84
2022/04/25 11:35:11;;;;;;;13.00;10.93;;;15.60;99.90;;;;;;5070579;28;20463;-83
2022/04/25 11:37:37;;;;;;;12.83;11.13;;;15.80;99.90;;;;;;5081299;28;20467;-83
2022/04/25 11:40:06;;;;;;;11.60;10.40;;;15.70;99.90;;;;;;5076371;28;20466;-81
2022/04/25 11:42:35;;;;;;;11.73;10.13;;;15.10;99.90;;;;;;5082371;28;20447;-83
2022/04/25 11:45:03;;;;;;;11.30;10.20;;;14.90;99.90;;;;;;5083587;28;20459;-80
2022/04/25 11:47:35;;;;;;;13.07;10.60;;;14.90;99.90;;;;;;5066682;28;20440;-80
2022/04/25 11:50:11;;;;;;;14.70;13.10;;;15.00;99.90;;;;;;5070700;28;20453;-80
2022/04/25 11:52:45;;;;;;;13.00;11.60;;;14.40;99.90;;;;;;5085455;28;20483;-83
2022/04/25 11:55:12;;;;;;;13.10;11.70;;;14.40;99.90;;;;;;5077633;28;20447;-80
2022/04/25 11:57:42;;;;;;;12.50;11.20;;;14.10;99.90;;;;;;5076592;28;20481;-81
2022/04/25 12:00:11;;;;;;;15.63;12.17;;;14.10;99.90;;;;;;5075129;28;20482;-82
2022/04/25 12:02:40;;;;;;;13.40;11.70;;;14.00;99.90;;;;;;5066809;28;20461;-80
2022/04/25 12:05:16;;;;;;;16.63;12.43;;;14.00;99.90;;;;;;5082740;28;20447;-80
2022/04/25 12:15:34;;;;;;;14.13;12.73;;;13.80;99.90;;;;;;5085393;28;20435;-81
2022/04/25 12:16:30;;;;;;;22.40;14.87;;;13.10;99.90;;;;;;4999996;28;20541;-82
2022/04/25 12:19:12;;;;;;;17.63;14.03;;;13.00;99.90;;;;;;5044546;28;20450;-81
2022/04/25 12:21:47;;;;;;;16.80;14.17;;;12.90;99.90;;;;;;5080482;28;20499;-80
2022/04/25 12:24:19;;;;;;;16.60;14.23;;;12.80;99.90;;;;;;5073008;28;20854;-82
2022/04/25 12:26:45;;;;;;;18.87;13.33;;;12.80;99.90;;;;;;5060893;28;20439;-80
2022/04/25 12:29:12;;;;;;;15.83;14.10;;;12.80;99.90;;;;;;5073512;28;20548;-82
2022/04/25 12:31:48;;;;;;;18.93;14.43;;;12.80;99.90;;;;;;5078823;28;20546;-82
2022/04/25 12:34:19;;;;;;;15.90;13.70;;;12.60;99.90;;;;;;5073746;28;20461;-82
2022/04/25 12:36:55;;;;;;;16.37;13.53;;;12.60;99.90;;;;;;5059904;28;20875;-82
2022/04/25 12:39:27;;;;;;;19.93;14.07;;;12.60;99.90;;;;;;5070762;28;20449;-82
2022/04/25 12:41:56;;;;;;;20.10;14.50;;;12.60;99.90;;;;;;5080863;28;20820;-82
2022/04/25 12:44:24;;;;;;;18.77;15.33;;;12.60;99.90;;;;;;5070067;28;20809;-82
2022/04/25 12:47:03;;;;;;;21.70;17.73;;;12.60;99.90;;;;;;5073911;28;20439;-82
2022/04/25 12:49:39;;;;;;;18.17;15.60;;;12.70;99.90;;;;;;5078688;28;20520;-81
2022/04/25 12:52:08;;;;;;;20.80;16.80;;;12.70;99.90;;;;;;5080240;28;20490;-83
2022/04/25 12:54:40;;;;;;;21.90;17.00;;;12.80;99.90;;;;;;5061536;28;20551;-81
2022/04/25 12:57:13;;;;;;;22.20;17.90;;;12.80;99.90;;;;;;5060188;28;20447;-82
2022/04/25 12:59:40;;;;;;;22.73;16.63;;;12.90;99.90;;;;;;5078132;28;20460;-84
2022/04/25 13:02:11;;;;;;;19.30;15.10;;;12.40;99.90;;;;;;5086413;28;20465;-82
2022/04/25 13:04:53;;;;;;;18.67;16.20;;;12.30;99.90;;;;;;5068750;28;20516;-84
2022/04/25 13:07:28;;;;;;;17.80;14.70;;;12.10;99.90;;;;;;5067235;28;20456;-85
2022/04/25 13:09:56;;;;;;;18.20;15.03;;;12.10;99.90;;;;;;5079301;28;20458;-83
2022/04/25 13:12:35;;;;;;;23.57;20.67;;;12.20;99.90;;;;;;5083922;28;20983;-84
2022/04/25 13:15:03;;;;;;;19.80;17.30;;;12.10;99.90;;;;;;5085459;28;20454;-84
2022/04/25 13:17:32;;;;;;;21.60;17.63;;;12.10;99.90;;;;;;5080602;28;20472;-84
2022/04/25 13:20:00;;;;;;;22.33;19.93;;;12.10;99.90;;;;;;5076464;28;20951;-84
2022/04/25 13:22:27;;;;;;;24.50;21.20;;;12.10;99.90;;;;;;5076753;28;20443;-83